Time;durP1;ratioP1;P1;durP2;ratioP2;P2;SDS_P1;SDS_P2;PMS_P1;PMS_P2;Temp;Humidity;BMP_temperature;BMP_pressure;BME280_temperature;BME280_humidity;BME280_pressure;Samples;Min_cycle;Max_cycle;Signal;HPM_P1;HPM_P2
2022/04/26 03:37:19;;;;;;;23.10;21.10;;;11.30;99.90;;;;;;6002219;23;20186;-75
2022/04/26 03:39:46;;;;;;;24.23;22.10;;;11.40;99.90;;;;;;6003385;23;20227;-75
2022/04/26 03:42:14;;;;;;;24.70;22.30;;;11.30;99.90;;;;;;6000019;23;20193;-75
2022/04/26 03:44:40;;;;;;;24.30;22.08;;;11.20;99.90;;;;;;6001283;23;20701;-75
2022/04/26 03:47:08;;;;;;;24.27;22.02;;;11.10;99.90;;;;;;5996438;23;20271;-74
2022/04/26 03:49:37;;;;;;;25.08;22.63;;;11.10;99.90;;;;;;6001709;23;20195;-75
2022/04/26 03:52:05;;;;;;;24.95;22.55;;;11.00;99.90;;;;;;6002405;23;20199;-75
2022/04/26 03:54:32;;;;;;;23.00;20.90;;;10.90;99.90;;;;;;6002431;23;20229;-75
2022/04/26 03:56:59;;;;;;;22.25;20.25;;;10.90;99.90;;;;;;5998679;23;20201;-74
2022/04/26 03:59:26;;;;;;;22.98;20.90;;;10.90;99.90;;;;;;5988482;23;20188;-75
2022/04/26 04:01:53;;;;;;;23.60;21.50;;;11.00;99.90;;;;;;5991490;23;20212;-74
2022/04/26 04:04:20;;;;;;;21.92;19.95;;;11.00;99.90;;;;;;6000592;23;20225;-74
2022/04/26 04:06:48;;;;;;;22.17;20.27;;;11.00;99.90;;;;;;6001237;23;20193;-75
2022/04/26 04:09:15;;;;;;;23.27;21.20;;;11.00;99.90;;;;;;6003615;23;20250;-75
2022/04/26 04:11:42;;;;;;;22.33;20.20;;;11.00;99.90;;;;;;6002314;23;20287;-75
2022/04/26 04:14:09;;;;;;;21.52;19.63;;;11.10;99.90;;;;;;5999377;23;20217;-75
2022/04/26 04:16:36;;;;;;;22.77;20.75;;;11.10;99.90;;;;;;6000605;23;20279;-75
2022/04/26 04:21:49;;;;;;;21.00;19.13;;;11.10;99.90;;;;;;5996562;23;20297;-74
2022/04/26 04:24:16;;;;;;;21.40;19.52;;;11.20;99.90;;;;;;5997676;23;20249;-74
2022/04/26 04:26:43;;;;;;;21.85;19.88;;;11.20;99.90;;;;;;5999155;23;20208;-75
2022/04/26 04:29:10;;;;;;;20.80;19.00;;;11.20;99.90;;;;;;5991839;23;20284;-74
2022/04/26 04:31:37;;;;;;;20.45;18.65;;;11.30;99.90;;;;;;6001852;23;20192;-74
2022/04/26 04:34:04;;;;;;;19.70;18.02;;;11.30;99.90;;;;;;5999612;23;20218;-75
2022/04/26 04:36:31;;;;;;;21.05;19.25;;;11.20;99.90;;;;;;5999112;23;20281;-74
2022/04/26 04:39:00;;;;;;;20.00;18.27;;;11.30;99.90;;;;;;6002084;23;20194;-74
2022/04/26 04:41:27;;;;;;;19.95;18.25;;;11.30;99.90;;;;;;6003065;23;20300;-74
2022/04/26 04:43:55;;;;;;;20.90;19.00;;;11.30;99.90;;;;;;6000045;23;20324;-74
2022/04/26 04:46:21;;;;;;;20.42;18.70;;;11.40;99.90;;;;;;5998612;23;20194;-74
2022/04/26 04:48:48;;;;;;;20.98;19.10;;;11.40;99.90;;;;;;5993322;23;20195;-75
2022/04/26 04:51:16;;;;;;;12.57;11.55;;;11.40;99.90;;;;;;5995788;23;20182;-79
2022/04/26 04:53:43;;;;;;;22.75;20.75;;;11.40;99.90;;;;;;5996309;23;20284;-77
2022/04/26 04:56:11;;;;;;;22.23;20.33;;;11.40;99.90;;;;;;5989373;23;20269;-78
2022/04/26 04:58:39;;;;;;;19.02;17.45;;;11.50;99.90;;;;;;5996583;23;20720;-78
2022/04/26 05:01:06;;;;;;;19.95;18.25;;;11.40;99.90;;;;;;5999927;23;20214;-78
2022/04/26 05:03:33;;;;;;;19.92;18.23;;;11.50;99.90;;;;;;5990547;23;20214;-79
2022/04/26 05:06:00;;;;;;;22.50;20.42;;;11.50;99.90;;;;;;6000812;23;20695;-79
2022/04/26 05:08:27;;;;;;;18.30;16.80;;;11.40;99.90;;;;;;5997692;23;20229;-77
2022/04/26 05:10:54;;;;;;;20.50;18.90;;;11.40;99.90;;;;;;5995956;23;20200;-79
2022/04/26 05:13:22;;;;;;;18.85;17.20;;;11.50;99.90;;;;;;5983924;23;20220;-77
2022/04/26 05:15:49;;;;;;;20.35;18.50;;;11.30;99.90;;;;;;5987844;23;20209;-77
2022/04/26 05:18:16;;;;;;;20.55;18.85;;;11.30;99.90;;;;;;5993376;23;20217;-77
2022/04/26 05:20:44;;;;;;;21.20;19.17;;;11.30;99.90;;;;;;5986787;23;20645;-78
2022/04/26 05:25:56;;;;;;;21.52;19.55;;;11.20;99.90;;;;;;5989585;23;20219;-77
2022/04/26 05:28:24;;;;;;;21.52;19.52;;;11.20;99.90;;;;;;5984417;23;20225;-77
2022/04/26 05:30:53;;;;;;;21.48;19.58;;;11.20;99.90;;;;;;5985102;23;20199;-77
2022/04/26 05:33:20;;;;;;;21.30;19.40;;;11.20;99.90;;;;;;5989970;23;20296;-77
2022/04/26 05:35:48;;;;;;;22.00;19.90;;;11.20;99.90;;;;;;5992626;23;20189;-77
2022/04/26 05:38:15;;;;;;;21.77;19.88;;;11.20;99.90;;;;;;5991421;23;20189;-77
2022/04/26 05:40:42;;;;;;;22.13;20.13;;;11.20;99.90;;;;;;5990165;23;20214;-78
2022/04/26 05:43:09;;;;;;;23.00;20.98;;;11.20;99.90;;;;;;5997116;23;20297;-78
2022/04/26 05:45:38;;;;;;;23.92;21.83;;;11.10;99.90;;;;;;5994515;23;20194;-77
2022/04/26 05:48:05;;;;;;;23.85;21.67;;;11.10;99.90;;;;;;5991697;23;20523;-77
2022/04/26 05:50:32;;;;;;;25.23;22.83;;;11.10;99.90;;;;;;5996031;23;20198;-77
2022/04/26 05:52:59;;;;;;;25.70;23.15;;;11.10;99.90;;;;;;5997842;23;20294;-77
2022/04/26 05:55:27;;;;;;;25.40;22.98;;;11.10;99.90;;;;;;5996028;23;20655;-77
2022/04/26 05:57:54;;;;;;;24.65;22.45;;;11.00;99.90;;;;;;5998179;23;20678;-77
2022/04/26 06:00:21;;;;;;;25.70;23.30;;;11.00;99.90;;;;;;5992209;23;20209;-78
2022/04/26 06:02:49;;;;;;;26.13;23.67;;;10.90;99.90;;;;;;5994795;23;20211;-78
2022/04/26 06:05:17;;;;;;;25.77;23.38;;;10.80;99.90;;;;;;5993668;23;20189;-79
2022/04/26 06:07:43;;;;;;;26.08;23.58;;;10.80;99.90;;;;;;5995731;23;20185;-78
2022/04/26 06:10:11;;;;;;;26.70;24.20;;;10.80;99.90;;;;;;5990836;23;20279;-78
2022/04/26 06:12:39;;;;;;;26.10;23.60;;;10.80;99.90;;;;;;5994875;23;20303;-78
2022/04/26 06:15:07;;;;;;;27.40;24.83;;;10.70;99.90;;;;;;5998510;23;20202;-78
2022/04/26 06:17:34;;;;;;;43.45;38.75;;;10.80;99.90;;;;;;5992345;23;20218;-79
2022/04/26 06:20:03;;;;;;;34.42;30.90;;;10.90;99.90;;;;;;5983194;23;20666;-84
2022/04/26 06:22:30;;;;;;;29.45;26.48;;;11.00;99.90;;;;;;5991829;23;20296;-78
2022/04/26 06:24:57;;;;;;;23.65;21.45;;;11.10;99.90;;;;;;5995009;23;20668;-78
2022/04/26 06:27:24;;;;;;;24.50;22.20;;;11.10;99.90;;;;;;5999752;23;20231;-78
2022/04/26 06:29:51;;;;;;;24.90;22.48;;;11.10;99.90;;;;;;5996267;23;20291;-78
2022/04/26 06:32:19;;;;;;;13.85;12.65;;;11.10;99.90;;;;;;5998671;23;20186;-78
2022/04/26 06:34:46;;;;;;;19.73;18.02;;;11.10;99.90;;;;;;5999300;23;20198;-77
2022/04/26 06:37:15;;;;;;;21.45;19.58;;;10.90;99.90;;;;;;5990076;23;20542;-78
2022/04/26 06:39:42;;;;;;;22.17;20.08;;;10.80;99.90;;;;;;5996882;23;20184;-77
2022/04/26 06:42:10;;;;;;;24.00;21.73;;;10.80;99.90;;;;;;5998327;23;20239;-78
2022/04/26 06:44:37;;;;;;;22.80;20.67;;;10.80;99.90;;;;;;6000480;23;20844;-78
2022/04/26 06:47:05;;;;;;;21.67;19.77;;;10.80;99.90;;;;;;6000069;23;20643;-78
2022/04/26 06:49:32;;;;;;;24.63;22.42;;;10.80;99.90;;;;;;5987153;23;20741;-78
2022/04/26 06:51:59;;;;;;;24.23;22.13;;;10.90;99.90;;;;;;6002905;23;20190;-77
2022/04/26 06:54:27;;;;;;;23.85;21.70;;;10.90;99.90;;;;;;5995607;23;20290;-77
2022/04/26 06:56:54;;;;;;;23.98;21.83;;;10.90;99.90;;;;;;5983870;23;20212;-77
2022/04/26 06:59:21;;;;;;;24.30;22.10;;;11.00;99.90;;;;;;5993381;23;20190;-78
2022/04/26 07:01:52;;;;;;;23.02;21.02;;;11.10;99.90;;;;;;5999370;23;20300;-77
2022/04/26 07:04:19;;;;;;;23.77;21.58;;;11.00;99.90;;;;;;5999831;23;20492;-77
2022/04/26 07:06:46;;;;;;;24.67;22.33;;;10.90;99.90;;;;;;5997619;23;20653;-77
2022/04/26 07:09:14;;;;;;;23.17;21.10;;;10.90;99.90;;;;;;6000825;23;20663;-77
2022/04/26 07:11:42;;;;;;;19.98;18.27;;;10.90;99.90;;;;;;5999850;23;20196;-77
2022/04/26 07:14:10;;;;;;;21.30;19.45;;;11.00;99.90;;;;;;5995364;23;20220;-77
2022/04/26 07:16:37;;;;;;;20.40;18.50;;;10.90;99.90;;;;;;5997934;23;20211;-77
2022/04/26 07:19:04;;;;;;;20.10;18.25;;;11.00;99.90;;;;;;5987326;23;21122;-77
2022/04/26 07:21:31;;;;;;;18.83;17.17;;;11.00;99.90;;;;;;6001630;23;20280;-77
2022/04/26 07:23:58;;;;;;;16.20;14.63;;;11.10;99.90;;;;;;6001670;23;20601;-77
2022/04/26 07:26:25;;;;;;;14.93;13.63;;;11.00;99.90;;;;;;6001507;23;20664;-77
2022/04/26 07:28:53;;;;;;;15.57;14.27;;;11.10;99.90;;;;;;5996162;23;20232;-77
2022/04/26 07:31:20;;;;;;;13.27;12.18;;;11.10;99.90;;;;;;5998212;23;20937;-77
2022/04/26 07:36:32;;;;;;;12.75;11.65;;;11.30;99.90;;;;;;5991557;23;20182;-75
2022/04/26 07:38:58;;;;;;;13.13;12.02;;;11.50;99.90;;;;;;5991680;23;20277;-78
2022/04/26 07:41:26;;;;;;;12.90;11.80;;;11.90;99.90;;;;;;5995810;23;20240;-77
2022/04/26 07:43:55;;;;;;;13.50;12.38;;;11.90;99.90;;;;;;5994715;23;20210;-78
2022/04/26 07:46:21;;;;;;;12.68;11.68;;;12.00;99.90;;;;;;5999583;23;20261;-77
2022/04/26 07:48:48;;;;;;;12.18;11.10;;;11.90;99.90;;;;;;5997849;23;20218;-77
2022/04/26 07:51:18;;;;;;;11.60;10.70;;;12.00;99.90;;;;;;5998127;23;20190;-77
2022/04/26 07:53:45;;;;;;;11.75;10.85;;;12.10;99.90;;;;;;6000524;23;20229;-77
2022/04/26 07:56:12;;;;;;;12.50;11.55;;;12.20;99.90;;;;;;5998736;23;20213;-77
2022/04/26 07:58:39;;;;;;;11.13;10.32;;;12.40;99.90;;;;;;5996031;23;20693;-77
2022/04/26 08:01:08;;;;;;;11.35;10.45;;;12.60;99.90;;;;;;5998536;23;20220;-77
2022/04/26 08:03:35;;;;;;;11.85;10.85;;;12.90;99.90;;;;;;6001419;23;20487;-77
2022/04/26 08:06:03;;;;;;;12.90;11.80;;;12.80;99.90;;;;;;5995849;23;20317;-77
2022/04/26 08:08:30;;;;;;;12.52;11.38;;;12.80;99.90;;;;;;5998740;23;20194;-77
2022/04/26 08:10:57;;;;;;;12.18;11.27;;;12.80;99.90;;;;;;6000896;23;20190;-77
2022/04/26 08:13:24;;;;;;;13.50;12.32;;;12.90;99.90;;;;;;6004431;23;20277;-77
2022/04/26 08:15:51;;;;;;;12.82;11.82;;;12.90;99.90;;;;;;5997010;23;20195;-77
2022/04/26 08:18:19;;;;;;;11.93;11.02;;;12.80;99.90;;;;;;5999431;23;20268;-77
2022/04/26 08:20:46;;;;;;;12.95;11.85;;;12.70;99.90;;;;;;5999145;23;20187;-79
2022/04/26 08:23:13;;;;;;;12.50;11.50;;;12.80;99.90;;;;;;6001482;23;20210;-79
2022/04/26 08:28:28;;;;;;;12.75;11.63;;;12.90;99.90;;;;;;5993774;23;20260;-78
2022/04/26 08:30:56;;;;;;;12.20;11.00;;;12.90;99.90;;;;;;5994911;23;20192;-78
2022/04/26 08:33:24;;;;;;;12.35;11.15;;;13.10;99.90;;;;;;6003416;23;20217;-79
2022/04/26 08:35:51;;;;;;;13.40;12.20;;;13.10;99.90;;;;;;5996248;23;20194;-78
2022/04/26 08:38:18;;;;;;;12.38;11.35;;;13.20;99.90;;;;;;5997157;23;20269;-78
2022/04/26 08:40:46;;;;;;;11.80;10.70;;;13.10;99.90;;;;;;6000235;23;20507;-78
2022/04/26 08:43:13;;;;;;;11.70;10.70;;;13.10;99.90;;;;;;5998547;23;20221;-78
2022/04/26 08:45:41;;;;;;;11.50;10.60;;;13.00;99.90;;;;;;6000247;23;20182;-78
2022/04/26 08:51:03;;;;;;;11.07;10.15;;;12.90;99.90;;;;;;5999113;23;20244;-78
2022/04/26 08:53:31;;;;;;;10.85;9.95;;;12.90;99.90;;;;;;5990736;23;20222;-78
2022/04/26 08:56:01;;;;;;;10.23;9.27;;;13.00;99.90;;;;;;5998867;23;20543;-78
2022/04/26 08:58:31;;;;;;;11.02;10.13;;;13.10;99.90;;;;;;6001235;23;20184;-78
2022/04/26 09:01:08;;;;;;;10.00;9.20;;;13.30;99.90;;;;;;6003060;23;20268;-79
2022/04/26 09:03:37;;;;;;;10.35;9.55;;;13.70;99.90;;;;;;5994853;23;20626;-78
2022/04/26 09:06:07;;;;;;;8.85;8.15;;;14.00;99.90;;;;;;5998094;23;20182;-78
2022/04/26 09:08:35;;;;;;;9.80;8.90;;;14.30;99.90;;;;;;6002876;23;20178;-79
2022/04/26 09:11:02;;;;;;;9.13;8.43;;;14.80;99.90;;;;;;5999816;23;20199;-78
2022/04/26 09:13:38;;;;;;;8.82;8.13;;;14.80;99.90;;;;;;5999459;23;20221;-78
2022/04/26 09:16:15;;;;;;;8.90;8.10;;;14.60;99.90;;;;;;5998060;23;20840;-78
2022/04/26 09:18:54;;;;;;;9.77;8.93;;;14.20;99.90;;;;;;6001166;23;20194;-78
2022/04/26 09:21:26;;;;;;;10.18;9.20;;;14.40;99.90;;;;;;5999135;23;20274;-78
2022/04/26 09:23:57;;;;;;;10.07;9.38;;;14.30;99.90;;;;;;6001465;23;20705;-78
2022/04/26 09:26:26;;;;;;;9.52;8.80;;;14.50;99.90;;;;;;5987419;23;20183;-79
2022/04/26 09:28:53;;;;;;;9.47;8.83;;;14.60;99.90;;;;;;6003764;23;20284;-78
2022/04/26 09:31:22;;;;;;;9.03;8.43;;;14.80;99.90;;;;;;5999510;23;20441;-78
2022/04/26 09:33:51;;;;;;;8.93;8.33;;;15.10;99.90;;;;;;5998507;23;20462;-80
2022/04/26 09:36:20;;;;;;;9.47;8.77;;;15.50;99.90;;;;;;5993507;23;20486;-79
2022/04/26 09:38:53;;;;;;;9.00;8.30;;;16.40;99.90;;;;;;6002886;23;20445;-78
2022/04/26 09:41:21;;;;;;;8.50;7.80;;;17.00;99.90;;;;;;5995402;23;20505;-78
2022/04/26 09:44:01;;;;;;;7.63;7.03;;;17.80;99.90;;;;;;5993812;23;20474;-79
2022/04/26 09:46:47;;;;;;;7.10;6.60;;;18.70;99.90;;;;;;6003445;23;20839;-78
2022/04/26 09:49:17;;;;;;;8.60;7.80;;;19.30;99.90;;;;;;5998719;23;20437;-78
2022/04/26 09:51:45;;;;;;;7.70;7.00;;;19.70;99.90;;;;;;6001111;23;20793;-78
2022/04/26 09:54:14;;;;;;;6.57;6.10;;;19.70;99.70;;;;;;6003357;23;20473;-78
2022/04/26 09:56:45;;;;;;;7.53;6.93;;;18.70;98.40;;;;;;6003501;23;20453;-78
2022/04/26 09:59:14;;;;;;;7.90;7.30;;;18.10;99.90;;;;;;6003398;23;20924;-79
2022/04/26 10:01:43;;;;;;;7.57;6.97;;;18.40;99.90;;;;;;5998202;23;20461;-79
2022/04/26 10:04:14;;;;;;;6.80;6.20;;;18.90;99.90;;;;;;6004213;23;20484;-79
2022/04/26 10:06:44;;;;;;;7.10;6.70;;;19.70;99.90;;;;;;5989017;23;20441;-79
2022/04/26 10:09:12;;;;;;;6.30;5.80;;;21.00;99.90;;;;;;5991197;23;20442;-79
2022/04/26 10:11:40;;;;;;;7.40;6.90;;;22.20;97.30;;;;;;5987051;23;21003;-79
2022/04/26 10:14:09;;;;;;;7.20;6.70;;;22.10;92.00;;;;;;6004558;23;20466;-79
2022/04/26 10:16:38;;;;;;;7.23;6.73;;;21.30;92.90;;;;;;5988582;23;20462;-78
2022/04/26 10:19:07;;;;;;;6.87;6.37;;;20.90;92.20;;;;;;6000298;23;20445;-79
2022/04/26 10:21:49;;;;;;;7.17;6.60;;;20.70;93.20;;;;;;5996932;23;20496;-79
2022/04/26 10:24:21;;;;;;;6.37;5.97;;;19.90;92.60;;;;;;6000526;23;20438;-78
2022/04/26 10:26:51;;;;;;;6.07;5.57;;;20.10;92.90;;;;;;6001208;23;20929;-79
2022/04/26 10:29:24;;;;;;;6.60;6.13;;;20.30;91.90;;;;;;5993306;23;20986;-79
2022/04/26 10:32:00;;;;;;;6.33;5.73;;;20.00;90.50;;;;;;5999502;23;20446;-78
2022/04/26 10:34:30;;;;;;;6.43;5.90;;;18.90;92.10;;;;;;6000366;23;20468;-79
2022/04/26 10:37:00;;;;;;;7.13;6.43;;;18.50;92.10;;;;;;6000318;23;20440;-78
2022/04/26 10:39:37;;;;;;;5.77;5.37;;;18.50;92.30;;;;;;5998413;23;20470;-79
2022/04/26 10:42:27;;;;;;;5.67;5.23;;;19.20;90.70;;;;;;6003250;23;20487;-79
2022/04/26 10:44:59;;;;;;;5.87;5.37;;;19.90;90.50;;;;;;6002929;23;20448;-79
2022/04/26 10:47:30;;;;;;;6.60;6.10;;;20.80;90.30;;;;;;5999750;23;20441;-79
2022/04/26 10:50:02;;;;;;;6.00;5.50;;;21.20;87.40;;;;;;6001682;23;20444;-79
2022/04/26 10:52:49;;;;;;;6.10;5.60;;;20.70;86.20;;;;;;5989662;23;20453;-79
2022/04/26 10:55:18;;;;;;;6.53;5.93;;;20.10;88.70;;;;;;5996363;23;20441;-79
2022/04/26 10:57:51;;;;;;;7.03;6.43;;;19.50;90.10;;;;;;6001586;23;20447;-79
2022/04/26 11:00:30;;;;;;;6.50;6.00;;;18.90;90.60;;;;;;6002127;23;20927;-79
2022/04/26 11:03:02;;;;;;;7.17;6.60;;;18.50;91.00;;;;;;5999741;23;20551;-79
2022/04/26 11:05:32;;;;;;;6.00;5.50;;;18.10;92.30;;;;;;5992123;23;20481;-79
2022/04/26 11:08:00;;;;;;;7.50;6.90;;;18.80;93.40;;;;;;6002477;23;20438;-78
2022/04/26 11:11:00;;;;;;;9.07;8.17;;;19.80;91.60;;;;;;5992507;23;20437;-77
2022/04/26 11:13:21;;;;;;;7.87;7.27;;;19.60;91.90;;;;;;5984546;23;20585;-79
2022/04/26 11:15:48;;;;;;;7.80;7.20;;;18.00;93.60;;;;;;6001883;23;20507;-81
2022/04/26 11:18:20;;;;;;;7.40;6.70;;;16.70;96.20;;;;;;5994288;23;22515;-79
2022/04/26 11:20:48;;;;;;;7.70;7.20;;;15.60;97.20;;;;;;5987418;23;20516;-79
2022/04/26 11:28:52;;;;;;;7.85;7.25;;;14.00;99.90;;;;;;5988939;23;20273;-79
2022/04/26 11:31:19;;;;;;;8.98;8.27;;;13.70;99.90;;;;;;6000973;23;20224;-79
2022/04/26 11:33:49;;;;;;;8.55;7.95;;;13.60;99.90;;;;;;5997944;23;20227;-79
2022/04/26 11:36:18;;;;;;;6.45;6.05;;;13.40;99.90;;;;;;5989489;23;20187;-79
2022/04/26 11:38:56;;;;;;;5.80;5.40;;;13.20;99.90;;;;;;5998196;23;20210;-79
2022/04/26 11:41:23;;;;;;;7.07;6.55;;;13.00;99.90;;;;;;5997959;23;20213;-79
2022/04/26 11:44:05;;;;;;;5.50;5.10;;;12.80;99.90;;;;;;5998233;23;20221;-79
2022/04/26 11:46:32;;;;;;;5.40;4.90;;;12.80;99.90;;;;;;6001978;23;20196;-78
2022/04/26 11:49:00;;;;;;;7.25;6.10;;;12.90;99.90;;;;;;6000379;23;20767;-79
2022/04/26 11:51:27;;;;;;;5.47;5.07;;;13.00;99.90;;;;;;5998851;23;20248;-79
2022/04/26 11:53:55;;;;;;;5.43;4.93;;;13.20;99.90;;;;;;5999373;23;20248;-79
2022/04/26 11:56:21;;;;;;;4.85;4.45;;;13.20;99.90;;;;;;5990165;23;20186;-78
2022/04/26 11:58:48;;;;;;;4.70;4.40;;;13.40;99.90;;;;;;5995908;23;20269;-79
2022/04/26 12:01:17;;;;;;;5.13;4.72;;;13.80;99.90;;;;;;5992096;23;20579;-79
2022/04/26 12:03:49;;;;;;;5.90;5.50;;;14.10;99.90;;;;;;5979987;23;20215;-81
2022/04/26 12:06:18;;;;;;;5.97;5.13;;;15.00;99.90;;;;;;5993002;23;20466;-79
2022/04/26 12:08:46;;;;;;;4.67;4.33;;;16.20;99.90;;;;;;5996180;23;20441;-79
2022/04/26 12:11:19;;;;;;;5.00;4.60;;;17.00;99.90;;;;;;6000517;23;20960;-80
2022/04/26 12:13:57;;;;;;;5.00;4.60;;;17.60;98.50;;;;;;5997034;23;20465;-80
2022/04/26 12:16:26;;;;;;;4.37;4.07;;;17.80;97.50;;;;;;5996353;23;20535;-79
2022/04/26 12:18:55;;;;;;;4.50;4.10;;;18.10;96.40;;;;;;5980451;23;20449;-79
2022/04/26 12:21:23;;;;;;;5.03;4.63;;;18.50;96.30;;;;;;6000456;23;20448;-78
2022/04/26 12:24:11;;;;;;;4.67;4.27;;;18.80;95.50;;;;;;6000060;23;20540;-85
2022/04/26 12:26:48;;;;;;;7.00;6.00;;;19.10;94.40;;;;;;5992923;23;20458;-86
2022/04/26 12:29:16;;;;;;;5.47;5.03;;;19.30;94.50;;;;;;5987780;23;20496;-85
2022/04/26 12:31:47;;;;;;;6.47;5.90;;;19.60;94.70;;;;;;6002370;23;20617;-81
2022/04/26 12:34:17;;;;;;;6.83;5.97;;;19.70;94.10;;;;;;6001647;23;20495;-80
2022/04/26 12:36:56;;;;;;;4.70;4.40;;;19.70;93.70;;;;;;5994703;23;20552;-77
2022/04/26 12:39:25;;;;;;;3.80;3.50;;;19.10;93.00;;;;;;6001735;23;20456;-77
2022/04/26 12:41:56;;;;;;;3.97;3.40;;;18.10;93.70;;;;;;6003087;23;21159;-77
2022/04/26 12:44:24;;;;;;;3.20;2.90;;;17.60;93.70;;;;;;6002063;23;20504;-76
2022/04/26 12:52:48;;;;;;;2.30;2.10;;;17.20;94.50;;;;;;5997378;23;21236;-77
2022/04/26 12:55:25;;;;;;;2.40;2.20;;;17.00;94.70;;;;;;6001347;23;20445;-76
2022/04/26 12:57:53;;;;;;;2.67;2.47;;;16.60;94.70;;;;;;5997017;23;20447;-77
2022/04/26 13:00:22;;;;;;;2.40;2.20;;;16.20;95.30;;;;;;6002538;23;20518;-76
2022/04/26 13:02:51;;;;;;;2.20;2.10;;;16.10;96.60;;;;;;6005161;23;20524;-76
2022/04/26 13:05:19;;;;;;;1.73;1.63;;;16.10;96.60;;;;;;5998240;23;20476;-76
2022/04/26 13:07:47;;;;;;;2.00;1.90;;;16.60;96.80;;;;;;5992601;23;20457;-76
2022/04/26 13:10:15;;;;;;;1.80;1.70;;;17.10;95.90;;;;;;5988724;23;20450;-76
2022/04/26 13:12:42;;;;;;;2.90;2.20;;;17.60;95.50;;;;;;5991496;23;20885;-77
2022/04/26 13:15:10;;;;;;;2.10;2.00;;;18.10;95.10;;;;;;5996356;23;20440;-76
2022/04/26 13:17:38;;;;;;;2.20;2.00;;;18.50;94.10;;;;;;5991490;23;20448;-77
2022/04/26 13:20:10;;;;;;;2.07;1.97;;;18.70;92.80;;;;;;5982809;23;20441;-76
2022/04/26 13:22:38;;;;;;;1.70;1.60;;;18.80;93.20;;;;;;5988462;23;21036;-76
2022/04/26 13:25:07;;;;;;;2.53;1.60;;;19.00;92.10;;;;;;6000622;23;20437;-76
2022/04/26 13:27:35;;;;;;;1.63;1.53;;;19.50;91.80;;;;;;5988857;23;20452;-77
2022/04/26 13:30:03;;;;;;;1.50;1.40;;;20.30;91.70;;;;;;5999560;23;20464;-77
2022/04/26 13:32:30;;;;;;;2.10;1.60;;;20.60;89.30;;;;;;6000629;23;20464;-77
2022/04/26 13:34:57;;;;;;;1.30;1.20;;;21.40;87.90;;;;;;6002125;23;20544;-76
2022/04/26 13:37:26;;;;;;;1.47;1.37;;;22.50;86.50;;;;;;5998425;23;20951;-77
2022/04/26 13:39:54;;;;;;;1.50;1.40;;;24.30;78.80;;;;;;5988597;23;20455;-77
2022/04/26 13:42:23;;;;;;;1.77;1.50;;;26.10;74.00;;;;;;5986217;23;20468;-76
2022/04/26 13:44:52;;;;;;;1.90;1.80;;;26.50;64.70;;;;;;5997611;23;20612;-76
2022/04/26 13:47:19;;;;;;;1.53;1.43;;;26.60;64.40;;;;;;5999407;23;20516;-77
2022/04/26 13:49:46;;;;;;;1.80;1.70;;;27.70;61.90;;;;;;5995089;23;20805;-77
2022/04/26 13:52:15;;;;;;;1.23;1.13;;;28.00;58.30;;;;;;5997621;23;20468;-76
2022/04/26 13:54:43;;;;;;;1.60;1.50;;;28.30;57.90;;;;;;5994844;23;20548;-77
2022/04/26 13:57:10;;;;;;;1.60;1.50;;;29.30;53.50;;;;;;5985198;23;20453;-77
2022/04/26 13:59:37;;;;;;;1.83;1.70;;;29.90;52.60;;;;;;5994740;23;21004;-76
2022/04/26 14:02:06;;;;;;;1.60;1.50;;;30.40;50.20;;;;;;5997639;23;20492;-76
2022/04/26 14:04:33;;;;;;;1.70;1.60;;;30.40;49.00;;;;;;5989366;23;20557;-76
2022/04/26 14:07:00;;;;;;;2.23;2.10;;;30.40;48.60;;;;;;5999462;23;20519;-77
2022/04/26 14:09:27;;;;;;;1.83;1.73;;;28.50;48.20;;;;;;5989967;23;20437;-76
2022/04/26 14:11:56;;;;;;;1.40;1.30;;;27.30;49.00;;;;;;5985016;23;20910;-77
2022/04/26 14:22:37;;;;;;;2.20;1.97;;;29.30;48.50;;;;;;5994077;23;20464;-77
2022/04/26 14:25:08;;;;;;;2.47;2.27;;;29.30;46.50;;;;;;5988911;23;20440;-76
2022/04/26 14:27:37;;;;;;;2.30;2.20;;;28.40;46.80;;;;;;5996048;23;20445;-76
2022/04/26 14:30:06;;;;;;;2.90;2.70;;;25.40;49.10;;;;;;5986886;23;21032;-78
2022/04/26 14:32:32;;;;;;;3.30;3.00;;;22.60;53.30;;;;;;5996879;23;20471;-78
2022/04/26 14:34:59;;;;;;;2.30;2.10;;;20.60;56.40;;;;;;5981909;23;20469;-85
2022/04/26 14:37:26;;;;;;;2.70;2.50;;;20.10;58.20;;;;;;5978203;23;20465;-85
2022/04/26 14:39:53;;;;;;;3.27;2.70;;;20.20;58.80;;;;;;5987426;23;20483;-85
2022/04/26 14:42:21;;;;;;;2.10;2.00;;;19.40;59.80;;;;;;5989054;23;20494;-85
2022/04/26 14:44:50;;;;;;;2.40;2.20;;;18.90;62.60;;;;;;5981556;23;21111;-86
2022/04/26 14:47:17;;;;;;;3.00;2.80;;;19.60;64.40;;;;;;5986405;23;20448;-85
2022/04/26 14:49:44;;;;;;;2.77;2.57;;;20.10;63.40;;;;;;5991898;23;20438;-86
2022/04/26 14:52:14;;;;;;;2.53;2.30;;;19.80;63.80;;;;;;5985782;23;20985;-85
2022/04/26 14:54:41;;;;;;;2.87;2.67;;;19.20;64.80;;;;;;5995514;23;20494;-85
2022/04/26 14:57:09;;;;;;;2.43;2.23;;;18.20;67.60;;;;;;5997637;23;20437;-85
2022/04/26 14:59:46;;;;;;;2.00;1.90;;;17.90;71.10;;;;;;5988315;23;20849;-85
2022/04/26 15:02:14;;;;;;;1.60;1.50;;;18.60;69.40;;;;;;5996404;23;20471;-86
2022/04/26 15:04:41;;;;;;;1.60;1.50;;;20.30;68.20;;;;;;5992913;23;20476;-85
2022/04/26 15:07:08;;;;;;;1.73;1.50;;;20.80;64.50;;;;;;5992066;23;20484;-85
2022/04/26 15:09:43;;;;;;;1.70;1.60;;;20.50;64.90;;;;;;5993839;23;20499;-84
2022/04/26 15:17:44;;;;;;;2.00;1.90;;;18.20;66.60;;;;;;5980376;23;20517;-86
2022/04/26 15:20:12;;;;;;;1.90;1.80;;;17.40;69.60;;;;;;5992713;23;20959;-86
2022/04/26 15:22:39;;;;;;;2.80;2.60;;;16.40;72.50;;;;;;5998611;23;20464;-85
2022/04/26 15:25:08;;;;;;;2.37;2.27;;;15.90;76.60;;;;;;6002561;23;20869;-85
2022/04/26 15:27:36;;;;;;;3.03;2.73;;;15.40;79.70;;;;;;5985131;23;20537;-85
2022/04/26 15:30:06;;;;;;;2.83;2.63;;;15.00;82.10;;;;;;5987653;23;20502;-86
2022/04/26 15:32:33;;;;;;;2.50;2.30;;;14.80;81.90;;;;;;5993327;23;21047;-89
2022/04/26 15:35:01;;;;;;;2.70;2.50;;;14.50;83.10;;;;;;5997964;23;21428;-89
2022/04/26 15:37:29;;;;;;;3.40;3.10;;;14.40;85.20;;;;;;6001293;23;20439;-88
2022/04/26 15:39:57;;;;;;;3.13;2.93;;;14.30;86.00;;;;;;5980305;23;20442;-87
2022/04/26 15:42:24;;;;;;;3.13;2.92;;;14.30;87.00;;;;;;5990602;23;20464;-86
2022/04/26 15:44:51;;;;;;;3.08;2.78;;;14.30;88.80;;;;;;5992668;23;20202;-85
2022/04/26 15:47:19;;;;;;;3.40;3.20;;;14.60;89.90;;;;;;5997533;23;20183;-89
2022/04/26 15:49:46;;;;;;;3.57;3.27;;;15.10;90.00;;;;;;5999043;23;20435;-86
2022/04/26 15:52:14;;;;;;;4.00;3.70;;;15.70;89.50;;;;;;6000133;23;20515;-88
2022/04/26 15:54:43;;;;;;;3.80;3.60;;;16.50;89.30;;;;;;5990844;23;20436;-86
2022/04/26 15:57:11;;;;;;;3.77;3.47;;;16.80;87.90;;;;;;5973565;23;20444;-85
2022/04/26 15:59:39;;;;;;;3.50;2.90;;;16.70;88.70;;;;;;5980529;23;20812;-86
2022/04/26 16:02:07;;;;;;;3.30;3.10;;;16.20;88.90;;;;;;5990381;23;20539;-85
2022/04/26 16:04:35;;;;;;;2.00;1.90;;;15.90;90.30;;;;;;5989991;23;20481;-84
2022/04/26 16:07:02;;;;;;;2.07;1.87;;;15.30;87.80;;;;;;5998987;23;20445;-78
2022/04/26 16:20:30;;;;;;;3.50;3.20;;;13.40;95.30;;;;;;5999379;23;20646;-88
2022/04/26 16:22:58;;;;;;;2.40;2.20;;;13.80;96.50;;;;;;5998182;23;20266;-88
2022/04/26 16:25:27;;;;;;;1.95;1.83;;;14.30;95.90;;;;;;5996588;23;20743;-85
2022/04/26 16:27:54;;;;;;;1.90;1.80;;;14.50;95.20;;;;;;5999534;23;20190;-86
2022/04/26 16:30:22;;;;;;;2.40;2.20;;;14.40;95.10;;;;;;5996330;23;20186;-85
2022/04/26 16:32:49;;;;;;;3.72;2.30;;;14.30;95.60;;;;;;5999253;23;20712;-87
2022/04/26 16:35:17;;;;;;;2.25;2.05;;;13.80;95.50;;;;;;6005538;23;20281;-85
2022/04/26 16:37:44;;;;;;;3.28;1.98;;;13.40;96.50;;;;;;5999061;23;20182;-84
2022/04/26 16:40:11;;;;;;;1.90;1.80;;;13.20;97.60;;;;;;5997452;23;20190;-86
2022/04/26 16:42:41;;;;;;;2.30;1.95;;;13.10;98.30;;;;;;5997190;23;20562;-86
2022/04/26 16:45:09;;;;;;;1.60;1.50;;;12.90;99.00;;;;;;5996961;23;20672;-86
2022/04/26 16:47:36;;;;;;;1.70;1.60;;;12.70;99.80;;;;;;5993305;23;20187;-85
2022/04/26 16:50:06;;;;;;;1.70;1.60;;;12.60;99.90;;;;;;6000251;23;20208;-85
2022/04/26 16:52:33;;;;;;;1.58;1.48;;;12.50;99.90;;;;;;5995990;23;20212;-86
2022/04/26 16:55:00;;;;;;;2.80;1.50;;;12.50;99.90;;;;;;5998010;23;20210;-85
2022/04/26 16:57:28;;;;;;;1.75;1.65;;;12.30;99.90;;;;;;5990582;23;20676;-84
2022/04/26 16:59:57;;;;;;;1.83;1.73;;;12.20;99.90;;;;;;5994833;23;20198;-85
2022/04/26 17:02:24;;;;;;;1.48;1.38;;;12.20;99.90;;;;;;6000716;23;20221;-87
2022/04/26 17:04:51;;;;;;;1.60;1.50;;;12.10;99.90;;;;;;6001948;23;20214;-83
2022/04/26 17:07:18;;;;;;;1.60;1.50;;;12.10;99.90;;;;;;5998335;23;20654;-80
2022/04/26 17:09:46;;;;;;;2.33;2.00;;;12.00;99.90;;;;;;5996878;23;20186;-85
2022/04/26 17:12:14;;;;;;;1.40;1.30;;;11.90;99.90;;;;;;5996970;23;20453;-86